sensor_id;sensor_type;location;lat;lon;timestamp;pressure;altitude;pressure_sealevel;temperature;humidity
77019;BME280;66044;53.142;17.962;2023-04-01T00:01:06;99026.39;;;10.78;75.07
77019;BME280;66044;53.142;17.962;2023-04-01T00:03:33;99029.40;;;10.79;75.25
77019;BME280;66044;53.142;17.962;2023-04-01T00:06:01;99028.02;;;10.79;75.34
77019;BME280;66044;53.142;17.962;2023-04-01T00:08:28;99028.49;;;10.79;75.29
77019;BME280;66044;53.142;17.962;2023-04-01T00:10:55;99028.86;;;10.79;75.17
77019;BME280;66044;53.142;17.962;2023-04-01T00:13:22;99026.85;;;10.78;75.07
77019;BME280;66044;53.142;17.962;2023-04-01T00:15:49;99027.60;;;10.76;75.22
77019;BME280;66044;53.142;17.962;2023-04-01T00:18:15;99023.99;;;10.74;75.12
77019;BME280;66044;53.142;17.962;2023-04-01T00:20:46;99023.50;;;10.72;75.17
77019;BME280;66044;53.142;17.962;2023-04-01T00:23:14;99025.56;;;10.72;75.39
77019;BME280;66044;53.142;17.962;2023-04-01T00:25:41;99023.93;;;10.70;75.37
77019;BME280;66044;53.142;17.962;2023-04-01T00:28:07;99021.39;;;10.69;75.41
77019;BME280;66044;53.142;17.962;2023-04-01T00:30:35;99023.05;;;10.68;75.24
77019;BME280;66044;53.142;17.962;2023-04-01T00:33:02;99021.38;;;10.67;75.16
77019;BME280;66044;53.142;17.962;2023-04-01T00:35:28;99020.82;;;10.66;75.24
77019;BME280;66044;53.142;17.962;2023-04-01T00:37:55;99023.27;;;10.65;75.16
77019;BME280;66044;53.142;17.962;2023-04-01T00:40:32;99019.12;;;10.65;75.25
77019;BME280;66044;53.142;17.962;2023-04-01T00:43:00;99018.96;;;10.65;75.44
77019;BME280;66044;53.142;17.962;2023-04-01T00:45:35;99019.27;;;10.64;75.40
77019;BME280;66044;53.142;17.962;2023-04-01T00:48:06;99016.88;;;10.64;75.23
77019;BME280;66044;53.142;17.962;2023-04-01T00:50:34;99016.10;;;10.63;75.43
77019;BME280;66044;53.142;17.962;2023-04-01T00:53:02;99017.25;;;10.63;75.60
77019;BME280;66044;53.142;17.962;2023-04-01T00:55:32;99017.86;;;10.63;75.65
77019;BME280;66044;53.142;17.962;2023-04-01T00:58:02;99014.48;;;10.63;75.55
77019;BME280;66044;53.142;17.962;2023-04-01T01:00:29;99017.48;;;10.63;75.49
77019;BME280;66044;53.142;17.962;2023-04-01T01:02:57;99012.04;;;10.63;75.38
77019;BME280;66044;53.142;17.962;2023-04-01T01:05:37;99014.42;;;10.64;75.50
77019;BME280;66044;53.142;17.962;2023-04-01T01:08:16;99012.05;;;10.64;75.62
77019;BME280;66044;53.142;17.962;2023-04-01T01:10:49;99009.83;;;10.64;75.56
77019;BME280;66044;53.142;17.962;2023-04-01T01:16:20;99008.38;;;10.64;75.75
77019;BME280;66044;53.142;17.962;2023-04-01T01:19:01;99004.92;;;10.64;75.65
77019;BME280;66044;53.142;17.962;2023-04-01T01:27:10;99008.92;;;10.55;75.55
77019;BME280;66044;53.142;17.962;2023-04-01T01:35:27;99009.84;;;10.41;75.42
77019;BME280;66044;53.142;17.962;2023-04-01T01:38:05;99010.12;;;10.38;75.44
77019;BME280;66044;53.142;17.962;2023-04-01T01:40:34;99007.34;;;10.35;75.47
77019;BME280;66044;53.142;17.962;2023-04-01T01:43:08;99013.59;;;10.33;75.46
77019;BME280;66044;53.142;17.962;2023-04-01T01:45:40;99010.17;;;10.31;75.54
77019;BME280;66044;53.142;17.962;2023-04-01T01:48:10;99011.95;;;10.31;75.58
77019;BME280;66044;53.142;17.962;2023-04-01T01:50:38;99008.71;;;10.29;75.57
77019;BME280;66044;53.142;17.962;2023-04-01T01:53:09;99010.80;;;10.26;75.41
77019;BME280;66044;53.142;17.962;2023-04-01T01:55:39;99010.38;;;10.22;75.60
77019;BME280;66044;53.142;17.962;2023-04-01T01:58:22;99007.45;;;10.20;75.73
77019;BME280;66044;53.142;17.962;2023-04-01T02:01:03;99009.13;;;10.17;75.51
77019;BME280;66044;53.142;17.962;2023-04-01T02:03:34;99014.05;;;10.12;75.46
77019;BME280;66044;53.142;17.962;2023-04-01T02:06:04;99013.75;;;10.07;75.58
77019;BME280;66044;53.142;17.962;2023-04-01T02:08:39;99015.61;;;10.03;75.46
77019;BME280;66044;53.142;17.962;2023-04-01T02:11:10;99011.73;;;10.00;75.59
77019;BME280;66044;53.142;17.962;2023-04-01T02:13:55;99011.99;;;9.96;75.69
77019;BME280;66044;53.142;17.962;2023-04-01T02:16:28;99009.71;;;9.93;75.64
77019;BME280;66044;53.142;17.962;2023-04-01T02:18:59;99011.42;;;9.89;75.72
77019;BME280;66044;53.142;17.962;2023-04-01T02:21:29;99012.61;;;9.86;75.67
77019;BME280;66044;53.142;17.962;2023-04-01T02:24:00;99014.19;;;9.84;75.69
77019;BME280;66044;53.142;17.962;2023-04-01T02:26:28;99011.02;;;9.82;75.72
77019;BME280;66044;53.142;17.962;2023-04-01T02:28:55;99010.14;;;9.80;75.71
77019;BME280;66044;53.142;17.962;2023-04-01T02:31:23;99010.52;;;9.80;75.82
77019;BME280;66044;53.142;17.962;2023-04-01T02:33:51;99016.86;;;9.80;75.85
77019;BME280;66044;53.142;17.962;2023-04-01T02:36:18;99018.33;;;9.80;75.71
77019;BME280;66044;53.142;17.962;2023-04-01T02:38:45;99020.75;;;9.82;75.78
77019;BME280;66044;53.142;17.962;2023-04-01T02:41:12;99023.16;;;9.84;75.72
77019;BME280;66044;53.142;17.962;2023-04-01T02:43:39;99024.00;;;9.85;75.74
77019;BME280;66044;53.142;17.962;2023-04-01T02:46:06;99023.20;;;9.88;75.70
77019;BME280;66044;53.142;17.962;2023-04-01T02:48:32;99029.77;;;9.91;75.64
77019;BME280;66044;53.142;17.962;2023-04-01T02:50:59;99027.39;;;9.92;75.64
77019;BME280;66044;53.142;17.962;2023-04-01T02:53:25;99030.88;;;9.95;75.64
77019;BME280;66044;53.142;17.962;2023-04-01T02:55:51;99033.84;;;9.97;75.49
77019;BME280;66044;53.142;17.962;2023-04-01T02:58:18;99035.02;;;9.98;75.43
77019;BME280;66044;53.142;17.962;2023-04-01T03:00:45;99037.16;;;9.98;75.67
77019;BME280;66044;53.142;17.962;2023-04-01T03:03:12;99039.23;;;9.99;75.46
77019;BME280;66044;53.142;17.962;2023-04-01T03:05:40;99042.30;;;10.00;75.33
77019;BME280;66044;53.142;17.962;2023-04-01T03:08:06;99039.86;;;9.99;75.23
77019;BME280;66044;53.142;17.962;2023-04-01T03:10:32;99044.29;;;10.00;75.36
77019;BME280;66044;53.142;17.962;2023-04-01T03:12:59;99043.95;;;9.97;75.28
77019;BME280;66044;53.142;17.962;2023-04-01T03:15:25;99044.00;;;9.95;75.32
77019;BME280;66044;53.142;17.962;2023-04-01T03:17:52;99047.35;;;9.95;75.21
77019;BME280;66044;53.142;17.962;2023-04-01T03:20:18;99049.09;;;9.93;75.24
77019;BME280;66044;53.142;17.962;2023-04-01T03:22:46;99051.94;;;9.92;75.31
77019;BME280;66044;53.142;17.962;2023-04-01T03:25:13;99050.01;;;9.91;75.26
77019;BME280;66044;53.142;17.962;2023-04-01T03:27:39;99051.31;;;9.91;75.16
77019;BME280;66044;53.142;17.962;2023-04-01T03:30:06;99051.16;;;9.92;75.15
77019;BME280;66044;53.142;17.962;2023-04-01T03:32:33;99054.61;;;9.92;75.08
77019;BME280;66044;53.142;17.962;2023-04-01T03:34:59;99057.52;;;9.91;75.09
77019;BME280;66044;53.142;17.962;2023-04-01T03:37:26;99058.33;;;9.89;75.13
77019;BME280;66044;53.142;17.962;2023-04-01T03:39:52;99064.17;;;9.87;75.22
77019;BME280;66044;53.142;17.962;2023-04-01T03:42:19;99063.08;;;9.80;75.04
77019;BME280;66044;53.142;17.962;2023-04-01T03:44:45;99064.61;;;9.71;74.99
77019;BME280;66044;53.142;17.962;2023-04-01T03:47:12;99067.73;;;9.60;74.95
77019;BME280;66044;53.142;17.962;2023-04-01T03:49:38;99069.25;;;9.50;75.17
77019;BME280;66044;53.142;17.962;2023-04-01T03:52:09;99072.85;;;9.41;75.31
77019;BME280;66044;53.142;17.962;2023-04-01T03:54:36;99072.87;;;9.33;75.34
77019;BME280;66044;53.142;17.962;2023-04-01T03:57:02;99076.02;;;9.30;75.32
77019;BME280;66044;53.142;17.962;2023-04-01T03:59:28;99082.02;;;9.27;75.52
77019;BME280;66044;53.142;17.962;2023-04-01T04:01:55;99080.92;;;9.25;75.25
77019;BME280;66044;53.142;17.962;2023-04-01T04:04:21;99082.66;;;9.24;75.33
77019;BME280;66044;53.142;17.962;2023-04-01T04:06:48;99085.50;;;9.24;75.54
77019;BME280;66044;53.142;17.962;2023-04-01T04:09:14;99088.71;;;9.25;75.37
77019;BME280;66044;53.142;17.962;2023-04-01T04:11:41;99091.64;;;9.25;75.38
77019;BME280;66044;53.142;17.962;2023-04-01T04:14:07;99098.80;;;9.28;75.56
77019;BME280;66044;53.142;17.962;2023-04-01T04:16:37;99097.13;;;9.28;75.63
77019;BME280;66044;53.142;17.962;2023-04-01T04:19:04;99105.44;;;9.27;75.59
77019;BME280;66044;53.142;17.962;2023-04-01T04:21:30;99103.06;;;9.22;75.56
77019;BME280;66044;53.142;17.962;2023-04-01T04:23:58;99106.40;;;9.16;75.53
77019;BME280;66044;53.142;17.962;2023-04-01T04:26:26;99103.22;;;9.11;75.48
77019;BME280;66044;53.142;17.962;2023-04-01T04:28:53;99108.23;;;9.08;75.48
77019;BME280;66044;53.142;17.962;2023-04-01T04:31:24;99108.38;;;9.04;75.76
77019;BME280;66044;53.142;17.962;2023-04-01T04:33:51;99112.84;;;9.01;75.69
77019;BME280;66044;53.142;17.962;2023-04-01T04:36:18;99117.27;;;8.98;75.54
77019;BME280;66044;53.142;17.962;2023-04-01T04:38:45;99118.45;;;8.95;75.60
77019;BME280;66044;53.142;17.962;2023-04-01T04:41:13;99122.33;;;8.90;75.36
77019;BME280;66044;53.142;17.962;2023-04-01T04:43:41;99123.23;;;8.85;75.72
77019;BME280;66044;53.142;17.962;2023-04-01T04:46:09;99126.02;;;8.83;75.62
77019;BME280;66044;53.142;17.962;2023-04-01T04:48:36;99125.50;;;8.80;75.62
77019;BME280;66044;53.142;17.962;2023-04-01T04:51:03;99129.27;;;8.77;75.74
77019;BME280;66044;53.142;17.962;2023-04-01T04:53:30;99127.30;;;8.75;75.47
77019;BME280;66044;53.142;17.962;2023-04-01T04:55:57;99130.94;;;8.74;75.61
77019;BME280;66044;53.142;17.962;2023-04-01T04:58:23;99137.04;;;8.73;75.77
77019;BME280;66044;53.142;17.962;2023-04-01T05:00:50;99137.15;;;8.70;75.73
77019;BME280;66044;53.142;17.962;2023-04-01T05:03:16;99145.85;;;8.66;75.72
77019;BME280;66044;53.142;17.962;2023-04-01T05:05:51;99144.57;;;8.57;75.68
77019;BME280;66044;53.142;17.962;2023-04-01T05:08:18;99152.31;;;8.54;75.77
77019;BME280;66044;53.142;17.962;2023-04-01T05:10:44;99149.90;;;8.49;75.92
77019;BME280;66044;53.142;17.962;2023-04-01T05:13:11;99157.32;;;8.45;75.97
77019;BME280;66044;53.142;17.962;2023-04-01T05:15:37;99158.70;;;8.42;75.84
77019;BME280;66044;53.142;17.962;2023-04-01T05:18:04;99162.77;;;8.37;75.73
77019;BME280;66044;53.142;17.962;2023-04-01T05:20:30;99168.00;;;8.34;76.12
77019;BME280;66044;53.142;17.962;2023-04-01T05:22:57;99169.25;;;8.32;75.94
77019;BME280;66044;53.142;17.962;2023-04-01T05:25:24;99169.77;;;8.30;76.03
77019;BME280;66044;53.142;17.962;2023-04-01T05:27:51;99171.30;;;8.26;75.86
77019;BME280;66044;53.142;17.962;2023-04-01T05:30:18;99181.48;;;8.22;75.93
77019;BME280;66044;53.142;17.962;2023-04-01T05:32:44;99180.86;;;8.14;75.84
77019;BME280;66044;53.142;17.962;2023-04-01T05:35:11;99175.14;;;8.02;75.57
77019;BME280;66044;53.142;17.962;2023-04-01T05:37:37;99184.08;;;7.99;75.95
77019;BME280;66044;53.142;17.962;2023-04-01T05:40:04;99178.48;;;7.89;76.13
77019;BME280;66044;53.142;17.962;2023-04-01T05:42:31;99183.69;;;7.84;76.06
77019;BME280;66044;53.142;17.962;2023-04-01T05:44:57;99182.85;;;7.78;75.96
77019;BME280;66044;53.142;17.962;2023-04-01T05:47:24;99183.52;;;7.73;76.29
77019;BME280;66044;53.142;17.962;2023-04-01T05:49:50;99183.27;;;7.73;76.30
77019;BME280;66044;53.142;17.962;2023-04-01T05:52:17;99187.42;;;7.74;76.57
77019;BME280;66044;53.142;17.962;2023-04-01T05:54:43;99191.42;;;7.76;76.19
77019;BME280;66044;53.142;17.962;2023-04-01T05:57:09;99196.28;;;7.77;76.30
77019;BME280;66044;53.142;17.962;2023-04-01T05:59:36;99195.96;;;7.80;76.45
77019;BME280;66044;53.142;17.962;2023-04-01T06:02:02;99200.46;;;7.82;76.34
77019;BME280;66044;53.142;17.962;2023-04-01T06:04:37;99203.25;;;7.87;76.48
77019;BME280;66044;53.142;17.962;2023-04-01T06:07:14;99205.95;;;7.91;76.30
77019;BME280;66044;53.142;17.962;2023-04-01T06:09:42;99206.81;;;7.95;75.83
77019;BME280;66044;53.142;17.962;2023-04-01T06:14:51;99214.04;;;7.91;75.40
77019;BME280;66044;53.142;17.962;2023-04-01T06:17:38;99210.88;;;7.89;75.43
77019;BME280;66044;53.142;17.962;2023-04-01T06:20:22;99217.46;;;7.90;75.26
77019;BME280;66044;53.142;17.962;2023-04-01T06:23:20;99217.73;;;7.88;75.10
77019;BME280;66044;53.142;17.962;2023-04-01T06:28:52;99227.14;;;7.95;75.26
77019;BME280;66044;53.142;17.962;2023-04-01T06:40:03;99237.40;;;8.05;74.94
77019;BME280;66044;53.142;17.962;2023-04-01T06:42:41;99242.73;;;8.04;74.69
77019;BME280;66044;53.142;17.962;2023-04-01T06:45:39;99243.62;;;8.03;74.72
77019;BME280;66044;53.142;17.962;2023-04-01T06:48:29;99245.89;;;8.02;74.71
77019;BME280;66044;53.142;17.962;2023-04-01T06:53:58;99254.88;;;7.95;74.33
77019;BME280;66044;53.142;17.962;2023-04-01T06:56:28;99252.27;;;7.92;74.43
77019;BME280;66044;53.142;17.962;2023-04-01T06:59:02;99255.61;;;7.92;74.24
77019;BME280;66044;53.142;17.962;2023-04-01T07:01:43;99255.17;;;7.95;74.43
77019;BME280;66044;53.142;17.962;2023-04-01T07:04:19;99260.55;;;8.01;74.73
77019;BME280;66044;53.142;17.962;2023-04-01T07:06:58;99264.31;;;8.06;74.31
77019;BME280;66044;53.142;17.962;2023-04-01T07:09:35;99263.60;;;8.10;74.45
77019;BME280;66044;53.142;17.962;2023-04-01T07:12:11;99269.30;;;8.15;74.43
77019;BME280;66044;53.142;17.962;2023-04-01T07:14:41;99269.13;;;8.21;74.14
77019;BME280;66044;53.142;17.962;2023-04-01T07:17:12;99272.98;;;8.25;74.07
77019;BME280;66044;53.142;17.962;2023-04-01T07:19:50;99276.47;;;8.30;74.20
77019;BME280;66044;53.142;17.962;2023-04-01T07:22:38;99275.56;;;8.32;74.01
77019;BME280;66044;53.142;17.962;2023-04-01T07:25:12;99285.55;;;8.34;74.01
77019;BME280;66044;53.142;17.962;2023-04-01T07:27:41;99282.33;;;8.37;73.95
77019;BME280;66044;53.142;17.962;2023-04-01T07:30:16;99285.56;;;8.38;73.75
77019;BME280;66044;53.142;17.962;2023-04-01T07:33:15;99281.67;;;8.38;73.76
77019;BME280;66044;53.142;17.962;2023-04-01T07:35:49;99287.23;;;8.40;74.00
77019;BME280;66044;53.142;17.962;2023-04-01T07:44:17;99297.23;;;8.40;73.32
77019;BME280;66044;53.142;17.962;2023-04-01T07:47:00;99303.58;;;8.43;73.46
77019;BME280;66044;53.142;17.962;2023-04-01T07:52:29;99311.41;;;8.47;73.23
77019;BME280;66044;53.142;17.962;2023-04-01T07:55:16;99321.58;;;8.44;73.37
77019;BME280;66044;53.142;17.962;2023-04-01T08:03:49;99328.48;;;8.23;73.37
77019;BME280;66044;53.142;17.962;2023-04-01T08:06:39;99334.91;;;8.17;72.86
77019;BME280;66044;53.142;17.962;2023-04-01T08:14:59;99341.65;;;8.17;72.97
77019;BME280;66044;53.142;17.962;2023-04-01T08:17:51;99348.36;;;8.16;72.97
77019;BME280;66044;53.142;17.962;2023-04-01T08:20:28;99350.27;;;8.17;73.04
77019;BME280;66044;53.142;17.962;2023-04-01T08:23:02;99355.13;;;8.19;72.97
77019;BME280;66044;53.142;17.962;2023-04-01T08:25:32;99358.41;;;8.18;72.96
77019;BME280;66044;53.142;17.962;2023-04-01T08:28:16;99360.95;;;8.19;73.28
77019;BME280;66044;53.142;17.962;2023-04-01T08:30:48;99363.55;;;8.19;73.18
77019;BME280;66044;53.142;17.962;2023-04-01T08:33:35;99363.83;;;8.22;73.04
77019;BME280;66044;53.142;17.962;2023-04-01T08:36:15;99366.45;;;8.30;73.13
77019;BME280;66044;53.142;17.962;2023-04-01T08:38:53;99368.63;;;8.39;73.15
77019;BME280;66044;53.142;17.962;2023-04-01T08:44:37;99374.20;;;8.57;72.54
77019;BME280;66044;53.142;17.962;2023-04-01T08:55:37;99387.80;;;8.92;71.76
77019;BME280;66044;53.142;17.962;2023-04-01T09:09:50;99402.30;;;8.91;70.96
77019;BME280;66044;53.142;17.962;2023-04-01T09:18:12;99410.12;;;9.01;70.84
77019;BME280;66044;53.142;17.962;2023-04-01T09:20:50;99411.36;;;9.05;70.74
77019;BME280;66044;53.142;17.962;2023-04-01T09:23:43;99409.21;;;9.05;70.56
77019;BME280;66044;53.142;17.962;2023-04-01T09:40:13;99435.61;;;9.14;70.14
77019;BME280;66044;53.142;17.962;2023-04-01T09:42:45;99440.92;;;9.15;70.17
77019;BME280;66044;53.142;17.962;2023-04-01T09:45:23;99440.71;;;9.16;70.17
77019;BME280;66044;53.142;17.962;2023-04-01T09:48:02;99448.95;;;9.15;70.10
77019;BME280;66044;53.142;17.962;2023-04-01T09:53:52;99453.73;;;9.16;70.11
77019;BME280;66044;53.142;17.962;2023-04-01T10:02:20;99461.52;;;9.28;69.23
77019;BME280;66044;53.142;17.962;2023-04-01T10:13:07;99467.42;;;9.19;69.26
77019;BME280;66044;53.142;17.962;2023-04-01T10:22:13;99474.77;;;9.28;69.80
77019;BME280;66044;53.142;17.962;2023-04-01T10:50:24;99486.98;;;9.82;68.07
77019;BME280;66044;53.142;17.962;2023-04-01T10:59:05;99494.95;;;9.73;68.03
77019;BME280;66044;53.142;17.962;2023-04-01T11:02:12;99497.48;;;9.76;68.07
77019;BME280;66044;53.142;17.962;2023-04-01T11:16:15;99509.66;;;9.85;67.87
77019;BME280;66044;53.142;17.962;2023-04-01T11:22:28;99517.34;;;9.73;67.72
77019;BME280;66044;53.142;17.962;2023-04-01T11:25:20;99523.11;;;9.64;67.86
77019;BME280;66044;53.142;17.962;2023-04-01T11:31:03;99526.77;;;9.51;67.92
77019;BME280;66044;53.142;17.962;2023-04-01T11:33:38;99531.42;;;9.47;68.02
77019;BME280;66044;53.142;17.962;2023-04-01T11:38:57;99540.05;;;9.45;68.05
77019;BME280;66044;53.142;17.962;2023-04-01T11:41:41;99548.28;;;9.44;68.01
77019;BME280;66044;53.142;17.962;2023-04-01T11:44:23;99551.67;;;9.45;68.13
77019;BME280;66044;53.142;17.962;2023-04-01T11:55:24;99562.45;;;9.53;67.75
77019;BME280;66044;53.142;17.962;2023-04-01T11:58:12;99563.77;;;9.48;67.86
77019;BME280;66044;53.142;17.962;2023-04-01T12:09:56;99573.46;;;9.41;67.31
77019;BME280;66044;53.142;17.962;2023-04-01T12:17:57;99580.27;;;9.50;67.03
77019;BME280;66044;53.142;17.962;2023-04-01T12:20:51;99581.15;;;9.48;67.09
77019;BME280;66044;53.142;17.962;2023-04-01T12:23:39;99585.83;;;9.48;67.18
77019;BME280;66044;53.142;17.962;2023-04-01T12:26:19;99597.65;;;9.46;66.95
77019;BME280;66044;53.142;17.962;2023-04-01T12:34:44;99611.36;;;9.35;67.08
77019;BME280;66044;53.142;17.962;2023-04-01T12:42:51;99612.89;;;9.35;66.49
77019;BME280;66044;53.142;17.962;2023-04-01T12:45:34;99616.48;;;9.40;66.30
77019;BME280;66044;53.142;17.962;2023-04-01T12:51:18;99618.27;;;9.64;66.21
77019;BME280;66044;53.142;17.962;2023-04-01T12:56:54;99625.48;;;9.83;65.69
77019;BME280;66044;53.142;17.962;2023-04-01T13:07:11;99643.66;;;9.94;64.81
77019;BME280;66044;53.142;17.962;2023-04-01T13:12:58;99652.16;;;9.94;64.81
77019;BME280;66044;53.142;17.962;2023-04-01T13:15:31;99653.59;;;9.91;64.66
77019;BME280;66044;53.142;17.962;2023-04-01T13:21:25;99665.20;;;9.88;64.45
77019;BME280;66044;53.142;17.962;2023-04-01T13:32:16;99667.15;;;9.59;64.30
77019;BME280;66044;53.142;17.962;2023-04-01T13:35:04;99672.30;;;9.57;64.46
77019;BME280;66044;53.142;17.962;2023-04-01T13:40:32;99673.93;;;9.52;64.35
77019;BME280;66044;53.142;17.962;2023-04-01T13:46:05;99679.91;;;9.40;64.39
77019;BME280;66044;53.142;17.962;2023-04-01T13:48:56;99686.86;;;9.35;64.40
77019;BME280;66044;53.142;17.962;2023-04-01T13:51:44;99686.91;;;9.28;64.46
77019;BME280;66044;53.142;17.962;2023-04-01T13:54:28;99690.29;;;9.28;64.83
77019;BME280;66044;53.142;17.962;2023-04-01T14:00:02;99698.02;;;9.23;64.54
77019;BME280;66044;53.142;17.962;2023-04-01T14:02:46;99703.55;;;9.21;64.71
77019;BME280;66044;53.142;17.962;2023-04-01T14:11:31;99716.23;;;9.17;65.12
77019;BME280;66044;53.142;17.962;2023-04-01T14:34:09;99734.65;;;8.68;64.84
77019;BME280;66044;53.142;17.962;2023-04-01T14:45:27;99751.30;;;8.50;65.02
77019;BME280;66044;53.142;17.962;2023-04-01T14:50:54;99759.05;;;8.41;65.13
77019;BME280;66044;53.142;17.962;2023-04-01T14:53:28;99762.17;;;8.34;65.13
77019;BME280;66044;53.142;17.962;2023-04-01T14:55:58;99765.59;;;8.27;65.25
77019;BME280;66044;53.142;17.962;2023-04-01T14:59:00;99771.66;;;8.22;65.30
77019;BME280;66044;53.142;17.962;2023-04-01T15:01:47;99779.34;;;8.18;65.40
77019;BME280;66044;53.142;17.962;2023-04-01T15:07:22;99786.02;;;8.12;65.33
77019;BME280;66044;53.142;17.962;2023-04-01T15:24:22;99816.18;;;7.79;65.38
77019;BME280;66044;53.142;17.962;2023-04-01T15:30:21;99823.95;;;7.72;65.42
77019;BME280;66044;53.142;17.962;2023-04-01T15:35:38;99833.07;;;7.64;65.58
77019;BME280;66044;53.142;17.962;2023-04-01T15:38:11;99832.32;;;7.64;65.61
77019;BME280;66044;53.142;17.962;2023-04-01T15:40:46;99839.42;;;7.65;66.01
77019;BME280;66044;53.142;17.962;2023-04-01T15:46:11;99846.71;;;7.56;65.63
77019;BME280;66044;53.142;17.962;2023-04-01T15:57:52;99857.66;;;7.34;66.03
77019;BME280;66044;53.142;17.962;2023-04-01T16:00:29;99863.67;;;7.32;66.15
77019;BME280;66044;53.142;17.962;2023-04-01T16:08:44;99873.71;;;7.13;66.35
77019;BME280;66044;53.142;17.962;2023-04-01T16:17:12;99889.58;;;6.92;66.37
77019;BME280;66044;53.142;17.962;2023-04-01T16:19:53;99895.23;;;6.87;66.58
77019;BME280;66044;53.142;17.962;2023-04-01T16:27:54;99906.63;;;6.75;66.76
77019;BME280;66044;53.142;17.962;2023-04-01T16:30:38;99916.86;;;6.73;66.79
77019;BME280;66044;53.142;17.962;2023-04-01T16:33:15;99920.17;;;6.71;66.86
77019;BME280;66044;53.142;17.962;2023-04-01T16:35:59;99924.32;;;6.62;66.95
77019;BME280;66044;53.142;17.962;2023-04-01T16:41:52;99936.18;;;6.44;67.24
77019;BME280;66044;53.142;17.962;2023-04-01T16:44:26;99939.61;;;6.38;67.15
77019;BME280;66044;53.142;17.962;2023-04-01T16:46:59;99945.02;;;6.30;67.20
77019;BME280;66044;53.142;17.962;2023-04-01T16:49:37;99946.45;;;6.21;67.44
77019;BME280;66044;53.142;17.962;2023-04-01T16:54:55;99955.80;;;6.08;67.61
77019;BME280;66044;53.142;17.962;2023-04-01T16:57:56;99959.40;;;6.02;67.79
77019;BME280;66044;53.142;17.962;2023-04-01T17:00:28;99964.30;;;5.99;67.99
77019;BME280;66044;53.142;17.962;2023-04-01T17:03:12;99968.43;;;5.98;67.92
77019;BME280;66044;53.142;17.962;2023-04-01T17:12:07;99986.02;;;5.93;67.49
77019;BME280;66044;53.142;17.962;2023-04-01T17:22:33;99993.55;;;5.70;67.83
77019;BME280;66044;53.142;17.962;2023-04-01T17:30:57;100006.64;;;5.56;68.02
77019;BME280;66044;53.142;17.962;2023-04-01T17:39:16;100027.04;;;5.48;67.97
77019;BME280;66044;53.142;17.962;2023-04-01T17:42:09;100034.00;;;5.44;68.08
77019;BME280;66044;53.142;17.962;2023-04-01T17:45:04;100042.61;;;5.36;68.07
77019;BME280;66044;53.142;17.962;2023-04-01T17:48:17;100043.69;;;5.28;68.16
77019;BME280;66044;53.142;17.962;2023-04-01T17:51:14;100049.58;;;5.19;68.43
77019;BME280;66044;53.142;17.962;2023-04-01T17:56:32;100060.52;;;5.06;68.72
77019;BME280;66044;53.142;17.962;2023-04-01T17:59:27;100068.75;;;5.04;68.74
77019;BME280;66044;53.142;17.962;2023-04-01T18:02:04;100065.95;;;5.02;68.88
77019;BME280;66044;53.142;17.962;2023-04-01T18:07:35;100073.30;;;5.04;69.06
77019;BME280;66044;53.142;17.962;2023-04-01T18:10:31;100080.45;;;5.02;69.09
77019;BME280;66044;53.142;17.962;2023-04-01T18:22:21;100101.91;;;4.85;69.61
77019;BME280;66044;53.142;17.962;2023-04-01T18:24:58;100103.84;;;4.84;69.77
77019;BME280;66044;53.142;17.962;2023-04-01T18:27:36;100106.08;;;4.83;70.00
77019;BME280;66044;53.142;17.962;2023-04-01T18:30:30;100110.02;;;4.86;69.98
77019;BME280;66044;53.142;17.962;2023-04-01T18:33:23;100109.54;;;4.87;70.11
77019;BME280;66044;53.142;17.962;2023-04-01T18:36:08;100113.39;;;4.88;70.23
77019;BME280;66044;53.142;17.962;2023-04-01T18:38:44;100116.40;;;4.89;70.39
77019;BME280;66044;53.142;17.962;2023-04-01T18:41:14;100120.92;;;4.86;70.61
77019;BME280;66044;53.142;17.962;2023-04-01T18:43:48;100126.88;;;4.84;70.33
77019;BME280;66044;53.142;17.962;2023-04-01T18:46:36;100131.69;;;4.83;70.75
77019;BME280;66044;53.142;17.962;2023-04-01T18:49:29;100134.08;;;4.79;70.43
77019;BME280;66044;53.142;17.962;2023-04-01T18:57:42;100144.70;;;4.75;70.62
77019;BME280;66044;53.142;17.962;2023-04-01T19:00:28;100149.84;;;4.71;70.51
77019;BME280;66044;53.142;17.962;2023-04-01T19:03:24;100149.40;;;4.64;70.55
77019;BME280;66044;53.142;17.962;2023-04-01T19:05:53;100156.44;;;4.58;70.71
77019;BME280;66044;53.142;17.962;2023-04-01T19:08:30;100160.82;;;4.55;70.94
77019;BME280;66044;53.142;17.962;2023-04-01T19:11:23;100161.16;;;4.51;70.90
77019;BME280;66044;53.142;17.962;2023-04-01T19:17:00;100170.10;;;4.46;71.11
77019;BME280;66044;53.142;17.962;2023-04-01T19:28:00;100189.85;;;4.44;71.31
77019;BME280;66044;53.142;17.962;2023-04-01T19:33:47;100202.13;;;4.45;71.20
77019;BME280;66044;53.142;17.962;2023-04-01T19:41:54;100207.86;;;4.32;71.45
77019;BME280;66044;53.142;17.962;2023-04-01T19:50:46;100219.55;;;4.23;71.74
77019;BME280;66044;53.142;17.962;2023-04-01T19:56:22;100227.81;;;4.26;71.73
77019;BME280;66044;53.142;17.962;2023-04-01T19:59:08;100227.05;;;4.27;71.99
77019;BME280;66044;53.142;17.962;2023-04-01T20:04:36;100233.26;;;4.29;72.09
77019;BME280;66044;53.142;17.962;2023-04-01T20:07:10;100238.55;;;4.31;72.08
77019;BME280;66044;53.142;17.962;2023-04-01T20:09:58;100241.54;;;4.31;72.28
77019;BME280;66044;53.142;17.962;2023-04-01T20:12:41;100246.92;;;4.30;72.35
77019;BME280;66044;53.142;17.962;2023-04-01T20:18:01;100252.23;;;4.21;72.20
77019;BME280;66044;53.142;17.962;2023-04-01T20:20:29;100256.14;;;4.22;72.28
77019;BME280;66044;53.142;17.962;2023-04-01T20:23:05;100261.39;;;4.23;72.29
77019;BME280;66044;53.142;17.962;2023-04-01T20:25:54;100260.70;;;4.23;72.17
77019;BME280;66044;53.142;17.962;2023-04-01T20:28:38;100265.74;;;4.24;72.02
77019;BME280;66044;53.142;17.962;2023-04-01T20:37:02;100276.02;;;4.32;72.29
77019;BME280;66044;53.142;17.962;2023-04-01T20:42:49;100277.64;;;4.30;72.14
77019;BME280;66044;53.142;17.962;2023-04-01T20:45:30;100278.27;;;4.28;72.31